Time;durP1;ratioP1;P1;durP2;ratioP2;P2;SDS_P1;SDS_P2;PMS_P1;PMS_P2;Temp;Humidity;BMP_temperature;BMP_pressure;BME280_temperature;BME280_humidity;BME280_pressure;Samples;Min_cycle;Max_cycle;Signal;HPM_P1;HPM_P2
2021/05/07 00:00:50;;;;;;;10.23;4.50;;;;;;;;;;6256256;28;20092;-71
2021/05/07 00:03:52;;;;;;;10.30;4.30;;;;;;;;;;6254643;28;20452;-71
2021/05/07 00:06:53;;;;;;;11.32;4.30;;;;;;;;;;6254811;28;20460;-71
2021/05/07 00:09:54;;;;;;;8.25;4.68;;;;;;;;;;6250411;28;20058;-70
2021/05/07 00:12:56;;;;;;;8.05;4.00;;;;;;;;;;6250747;28;20044;-70
2021/05/07 00:15:58;;;;;;;8.15;4.65;;;;;;;;;;6247804;28;20055;-72
2021/05/07 00:18:59;;;;;;;9.38;4.30;;;;;;;;;;6247659;28;20048;-71
2021/05/07 00:22:00;;;;;;;13.20;4.00;;;;;;;;;;6257647;28;20056;-70
2021/05/07 00:25:01;;;;;;;14.95;5.07;;;;;;;;;;6267293;28;20076;-71
2021/05/07 00:28:05;;;;;;;8.77;3.75;;;;;;;;;;6264996;28;20135;-70
2021/05/07 00:31:06;;;;;;;6.95;3.90;;;;;;;;;;6262434;28;20112;-70
2021/05/07 00:34:07;;;;;;;10.50;4.22;;;;;;;;;;6257194;28;20118;-71
2021/05/07 00:37:08;;;;;;;11.20;4.13;;;;;;;;;;6263477;28;20087;-70
2021/05/07 00:40:10;;;;;;;9.98;4.28;;;;;;;;;;6261965;28;20138;-71
2021/05/07 00:43:12;;;;;;;9.40;3.90;;;;;;;;;;6260482;28;20188;-71
2021/05/07 00:46:13;;;;;;;7.95;4.20;;;;;;;;;;6251932;28;20048;-72
2021/05/07 00:49:14;;;;;;;5.80;3.55;;;;;;;;;;6244363;28;20062;-72
2021/05/07 00:52:16;;;;;;;10.95;3.65;;;;;;;;;;6245220;28;20128;-70
2021/05/07 00:55:17;;;;;;;13.80;7.18;;;;;;;;;;6250862;28;20056;-70
2021/05/07 00:58:19;;;;;;;8.57;3.83;;;;;;;;;;6258799;28;20124;-71
2021/05/07 01:01:20;;;;;;;11.10;4.20;;;;;;;;;;6246956;28;20053;-71
2021/05/07 01:04:21;;;;;;;8.23;3.90;;;;;;;;;;6258566;22;20045;-72
2021/05/07 01:07:22;;;;;;;11.32;3.92;;;;;;;;;;6248921;28;20091;-71
2021/05/07 01:10:24;;;;;;;8.85;4.40;;;;;;;;;;6227767;28;20053;-72
2021/05/07 01:13:26;;;;;;;9.15;3.95;;;;;;;;;;6241508;28;20041;-72
2021/05/07 01:16:28;;;;;;;10.82;4.10;;;;;;;;;;6227270;28;20071;-72
2021/05/07 01:19:29;;;;;;;11.65;4.57;;;;;;;;;;6224067;28;20607;-72
2021/05/07 01:22:30;;;;;;;12.52;4.07;;;;;;;;;;6231167;28;20497;-72
2021/05/07 01:25:35;;;;;;;11.30;4.22;;;;;;;;;;6233350;28;20140;-71
2021/05/07 01:28:36;;;;;;;11.30;4.15;;;;;;;;;;6259923;28;20080;-72
2021/05/07 01:31:38;;;;;;;9.15;4.05;;;;;;;;;;6254112;28;20110;-72
2021/05/07 01:34:39;;;;;;;8.85;4.38;;;;;;;;;;6263875;28;20628;-72
2021/05/07 01:37:42;;;;;;;8.48;4.30;;;;;;;;;;6237434;28;20042;-72
2021/05/07 01:40:45;;;;;;;7.90;3.83;;;;;;;;;;6239253;28;20063;-72
2021/05/07 01:43:46;;;;;;;8.82;4.22;;;;;;;;;;6246890;28;20049;-72
2021/05/07 01:46:47;;;;;;;9.95;4.57;;;;;;;;;;6237443;28;20056;-71
2021/05/07 01:49:48;;;;;;;8.25;3.70;;;;;;;;;;6241092;28;20045;-72
2021/05/07 01:52:50;;;;;;;10.88;4.78;;;;;;;;;;6248077;28;20038;-72
2021/05/07 01:55:51;;;;;;;14.95;4.68;;;;;;;;;;6248390;28;20124;-72
2021/05/07 01:58:52;;;;;;;8.15;4.13;;;;;;;;;;6258436;28;20075;-72
2021/05/07 02:01:53;;;;;;;9.68;4.25;;;;;;;;;;6253579;28;20123;-72
2021/05/07 02:04:54;;;;;;;9.48;4.45;;;;;;;;;;6223845;28;20405;-72
2021/05/07 02:07:56;;;;;;;13.10;5.28;;;;;;;;;;6235154;28;21847;-72
2021/05/07 02:10:57;;;;;;;8.35;4.28;;;;;;;;;;6246433;28;20132;-72
2021/05/07 02:13:59;;;;;;;8.23;5.03;;;;;;;;;;6233322;28;20056;-72
2021/05/07 02:17:00;;;;;;;7.70;4.30;;;;;;;;;;6250334;28;20133;-71
2021/05/07 02:20:02;;;;;;;7.00;4.07;;;;;;;;;;6235418;28;20121;-72
2021/05/07 02:23:03;;;;;;;10.40;4.68;;;;;;;;;;6235511;28;20118;-71
2021/05/07 02:26:05;;;;;;;6.20;3.97;;;;;;;;;;6254936;28;20132;-71
2021/05/07 02:29:06;;;;;;;10.60;4.45;;;;;;;;;;6247427;28;20157;-72
2021/05/07 02:32:07;;;;;;;10.27;4.50;;;;;;;;;;6234715;28;20140;-72
2021/05/07 02:35:09;;;;;;;8.23;4.30;;;;;;;;;;6235893;28;20052;-71
2021/05/07 02:38:11;;;;;;;9.50;4.28;;;;;;;;;;6238453;28;20175;-71
2021/05/07 02:41:12;;;;;;;8.88;3.78;;;;;;;;;;6246084;28;20136;-72
2021/05/07 02:44:13;;;;;;;8.60;4.32;;;;;;;;;;6237019;28;20140;-72
2021/05/07 02:47:14;;;;;;;8.00;4.30;;;;;;;;;;6234355;28;20074;-72
2021/05/07 02:50:15;;;;;;;7.53;4.13;;;;;;;;;;6234197;28;20060;-71
2021/05/07 02:53:17;;;;;;;9.10;4.20;;;;;;;;;;6224519;28;20041;-72
2021/05/07 02:56:18;;;;;;;7.72;3.97;;;;;;;;;;6237809;28;20053;-71
2021/05/07 02:59:19;;;;;;;7.30;3.92;;;;;;;;;;6257205;28;20536;-71
2021/05/07 03:02:20;;;;;;;11.05;4.55;;;;;;;;;;6256577;28;20478;-72
2021/05/07 03:05:27;;;;;;;6.65;4.25;;;;;;;;;;6259869;28;20052;-71
2021/05/07 03:08:30;;;;;;;7.13;4.50;;;;;;;;;;6248973;28;20137;-72
2021/05/07 03:11:31;;;;;;;9.85;4.43;;;;;;;;;;6230249;28;20523;-71
2021/05/07 03:14:32;;;;;;;9.85;4.47;;;;;;;;;;6237075;28;20048;-71
2021/05/07 03:17:33;;;;;;;7.38;4.28;;;;;;;;;;6234050;28;20191;-72
2021/05/07 03:20:34;;;;;;;9.75;4.22;;;;;;;;;;6255410;28;20056;-72
2021/05/07 03:23:36;;;;;;;10.05;4.20;;;;;;;;;;6253123;28;20045;-72
2021/05/07 03:26:38;;;;;;;8.70;4.10;;;;;;;;;;6256599;28;20071;-71
2021/05/07 03:29:39;;;;;;;8.00;4.35;;;;;;;;;;6246348;28;20071;-71
2021/05/07 03:32:40;;;;;;;9.85;4.30;;;;;;;;;;6236509;28;20133;-71
2021/05/07 03:35:41;;;;;;;9.95;4.75;;;;;;;;;;6236099;28;20472;-72
2021/05/07 03:38:43;;;;;;;11.57;5.20;;;;;;;;;;6234965;28;20481;-72
2021/05/07 03:41:44;;;;;;;8.10;4.57;;;;;;;;;;6254204;28;20053;-72
2021/05/07 03:44:45;;;;;;;10.40;5.15;;;;;;;;;;6251680;28;20050;-72
2021/05/07 03:47:47;;;;;;;9.88;4.95;;;;;;;;;;6251583;28;20433;-72
2021/05/07 03:50:48;;;;;;;10.13;5.10;;;;;;;;;;6258013;28;20045;-71
2021/05/07 03:53:50;;;;;;;9.30;5.05;;;;;;;;;;6254105;28;20048;-72
2021/05/07 03:56:51;;;;;;;10.77;5.95;;;;;;;;;;6236195;28;20128;-72
2021/05/07 03:59:52;;;;;;;9.48;5.07;;;;;;;;;;6252757;28;25733;-71
2021/05/07 04:02:53;;;;;;;11.23;4.88;;;;;;;;;;6247559;28;20053;-72
2021/05/07 04:05:56;;;;;;;10.93;5.10;;;;;;;;;;6256818;28;20049;-72
2021/05/07 04:09:03;;;;;;;9.38;4.80;;;;;;;;;;6249151;28;20573;-71
2021/05/07 04:12:15;;;;;;;10.50;5.40;;;;;;;;;;6241708;28;20054;-72
2021/05/07 04:15:17;;;;;;;9.50;5.28;;;;;;;;;;6223428;28;20359;-72
2021/05/07 04:18:18;;;;;;;11.18;5.47;;;;;;;;;;6244346;28;20053;-71
2021/05/07 04:21:19;;;;;;;10.77;5.38;;;;;;;;;;6225206;28;20042;-72
2021/05/07 04:24:21;;;;;;;12.23;6.43;;;;;;;;;;6225270;28;20413;-72
2021/05/07 04:27:22;;;;;;;12.55;6.07;;;;;;;;;;6249753;28;20135;-72
2021/05/07 04:30:23;;;;;;;9.23;6.15;;;;;;;;;;6231028;28;20048;-72
2021/05/07 04:33:24;;;;;;;14.52;6.05;;;;;;;;;;6231942;28;20551;-72
2021/05/07 04:36:25;;;;;;;11.13;5.70;;;;;;;;;;6228942;28;20048;-72
2021/05/07 04:39:27;;;;;;;13.63;6.22;;;;;;;;;;6221215;28;20038;-71
2021/05/07 04:42:28;;;;;;;15.07;6.22;;;;;;;;;;6219319;28;21260;-72
2021/05/07 04:45:29;;;;;;;12.00;5.65;;;;;;;;;;6246456;28;20091;-72
2021/05/07 04:48:30;;;;;;;10.82;6.35;;;;;;;;;;6249449;28;20136;-72
2021/05/07 04:51:31;;;;;;;12.90;6.22;;;;;;;;;;6258930;28;20041;-71
2021/05/07 04:54:34;;;;;;;9.55;5.80;;;;;;;;;;6231347;28;20050;-72
2021/05/07 04:57:35;;;;;;;10.80;6.25;;;;;;;;;;6241923;28;20053;-71
2021/05/07 05:00:36;;;;;;;13.07;6.32;;;;;;;;;;6235499;28;20065;-72
2021/05/07 05:03:37;;;;;;;10.68;5.78;;;;;;;;;;6248900;28;20140;-72
2021/05/07 05:06:38;;;;;;;10.77;6.40;;;;;;;;;;6244722;28;20045;-72
2021/05/07 05:09:40;;;;;;;10.52;6.55;;;;;;;;;;6239821;28;20049;-72
2021/05/07 05:12:41;;;;;;;12.68;6.32;;;;;;;;;;6256571;28;20139;-72
2021/05/07 05:15:42;;;;;;;10.85;6.43;;;;;;;;;;6261487;28;20048;-72
2021/05/07 05:18:43;;;;;;;9.27;5.53;;;;;;;;;;6238137;28;20106;-71
2021/05/07 05:21:44;;;;;;;12.25;6.55;;;;;;;;;;6224081;28;20049;-71
2021/05/07 05:24:46;;;;;;;10.35;6.28;;;;;;;;;;6241275;28;20132;-72
2021/05/07 05:27:47;;;;;;;8.88;6.50;;;;;;;;;;6253289;28;20049;-72
2021/05/07 05:30:49;;;;;;;15.57;7.13;;;;;;;;;;6247607;28;20056;-72
2021/05/07 05:33:50;;;;;;;14.15;5.93;;;;;;;;;;6239858;28;20045;-72
2021/05/07 05:36:51;;;;;;;12.02;6.65;;;;;;;;;;6267305;28;20569;-74
2021/05/07 05:39:53;;;;;;;10.95;5.93;;;;;;;;;;6260554;28;20044;-72
2021/05/07 05:42:54;;;;;;;12.82;6.20;;;;;;;;;;6263516;28;20063;-73
2021/05/07 05:45:55;;;;;;;10.05;6.00;;;;;;;;;;6247205;28;20049;-73
2021/05/07 05:48:56;;;;;;;11.48;6.47;;;;;;;;;;6240488;28;20137;-72
2021/05/07 05:51:57;;;;;;;13.10;6.05;;;;;;;;;;6252828;28;20054;-73
2021/05/07 05:54:59;;;;;;;10.30;6.65;;;;;;;;;;6236839;28;20137;-73
2021/05/07 05:58:00;;;;;;;12.98;6.75;;;;;;;;;;6237967;28;20048;-72
2021/05/07 06:01:01;;;;;;;12.57;6.40;;;;;;;;;;6254052;28;20057;-72
2021/05/07 06:04:02;;;;;;;13.50;7.07;;;;;;;;;;6241668;28;20088;-72
2021/05/07 06:07:03;;;;;;;7.78;6.70;;;;;;;;;;6265626;28;20132;-72
2021/05/07 06:10:07;;;;;;;13.00;6.75;;;;;;;;;;6257901;28;20155;-72
2021/05/07 06:13:08;;;;;;;10.65;7.20;;;;;;;;;;6248641;28;20153;-72
2021/05/07 06:16:09;;;;;;;13.88;7.55;;;;;;;;;;6231027;28;20574;-73
2021/05/07 06:19:10;;;;;;;14.30;6.88;;;;;;;;;;6245700;28;20041;-72
2021/05/07 06:22:11;;;;;;;14.50;6.90;;;;;;;;;;6258857;28;20040;-72
2021/05/07 06:25:16;;;;;;;14.65;6.90;;;;;;;;;;6262936;28;20060;-73
2021/05/07 06:28:17;;;;;;;11.98;6.88;;;;;;;;;;6242916;28;20049;-72
2021/05/07 06:31:19;;;;;;;11.65;6.95;;;;;;;;;;6240651;28;20053;-72
2021/05/07 06:34:20;;;;;;;11.38;6.25;;;;;;;;;;6237076;28;20045;-72
2021/05/07 06:37:21;;;;;;;11.40;6.93;;;;;;;;;;6233976;28;20046;-73
2021/05/07 06:40:23;;;;;;;12.90;7.65;;;;;;;;;;6244689;28;20053;-73
2021/05/07 06:43:24;;;;;;;15.57;7.53;;;;;;;;;;6246501;28;20056;-73
2021/05/07 06:46:25;;;;;;;15.10;7.13;;;;;;;;;;6243983;28;20045;-72
2021/05/07 06:49:26;;;;;;;12.07;8.73;;;;;;;;;;6222996;28;20772;-72
2021/05/07 06:52:27;;;;;;;18.10;6.80;;;;;;;;;;6245675;28;20045;-73
2021/05/07 06:55:29;;;;;;;13.90;7.00;;;;;;;;;;6229287;28;20046;-73
2021/05/07 06:58:31;;;;;;;17.85;8.10;;;;;;;;;;6249208;28;20072;-72
2021/05/07 07:01:32;;;;;;;15.02;7.97;;;;;;;;;;6238914;28;20072;-72
2021/05/07 07:04:33;;;;;;;15.43;8.30;;;;;;;;;;6252365;28;20060;-72
2021/05/07 07:07:35;;;;;;;13.55;8.00;;;;;;;;;;6258747;28;20431;-72
2021/05/07 07:10:37;;;;;;;17.38;8.00;;;;;;;;;;6243261;28;20771;-73
2021/05/07 07:13:38;;;;;;;13.32;7.85;;;;;;;;;;6226048;28;20053;-73
2021/05/07 07:16:39;;;;;;;15.52;7.82;;;;;;;;;;6238251;28;20132;-73
2021/05/07 07:19:40;;;;;;;15.30;8.32;;;;;;;;;;6223098;28;20050;-72
2021/05/07 07:22:41;;;;;;;16.77;7.05;;;;;;;;;;6249025;28;20087;-72
2021/05/07 07:25:44;;;;;;;16.17;7.53;;;;;;;;;;6235460;28;20136;-72
2021/05/07 07:28:47;;;;;;;11.10;5.97;;;;;;;;;;6245069;28;20060;-73
2021/05/07 07:31:50;;;;;;;12.80;5.57;;;;;;;;;;6260747;28;20072;-73
2021/05/07 07:34:54;;;;;;;12.02;5.53;;;;;;;;;;6265740;28;20049;-73
2021/05/07 07:37:55;;;;;;;11.80;5.63;;;;;;;;;;6262418;28;20036;-73
2021/05/07 07:40:57;;;;;;;11.45;5.70;;;;;;;;;;6259427;28;20057;-73
2021/05/07 07:43:58;;;;;;;8.18;3.78;;;;;;;;;;6260721;28;20128;-77
2021/05/07 07:47:00;;;;;;;13.05;4.45;;;;;;;;;;6248779;28;20199;-75
2021/05/07 07:50:01;;;;;;;8.63;3.83;;;;;;;;;;6254569;28;20128;-75
2021/05/07 07:53:02;;;;;;;10.55;5.60;;;;;;;;;;6244926;28;20133;-78
2021/05/07 07:56:05;;;;;;;11.45;5.10;;;;;;;;;;6243159;28;20745;-75
2021/05/07 07:59:06;;;;;;;9.95;4.85;;;;;;;;;;6230481;28;20046;-75
2021/05/07 08:02:07;;;;;;;13.13;4.07;;;;;;;;;;6241374;28;20072;-75
2021/05/07 08:05:09;;;;;;;10.68;4.75;;;;;;;;;;6259478;28;20136;-75
2021/05/07 08:08:10;;;;;;;14.63;4.13;;;;;;;;;;6261640;28;20040;-75
2021/05/07 08:11:12;;;;;;;10.20;4.43;;;;;;;;;;6254852;28;20528;-75
2021/05/07 08:14:13;;;;;;;7.85;3.42;;;;;;;;;;6256704;28;20129;-78
2021/05/07 08:17:14;;;;;;;13.80;3.78;;;;;;;;;;6255761;28;20060;-76
2021/05/07 08:20:17;;;;;;;8.65;3.28;;;;;;;;;;6261635;28;20638;-76
2021/05/07 08:23:18;;;;;;;14.13;3.60;;;;;;;;;;6265359;28;20475;-75
2021/05/07 08:26:20;;;;;;;10.35;3.50;;;;;;;;;;6249771;28;20558;-74
2021/05/07 08:29:21;;;;;;;8.63;3.75;;;;;;;;;;6263211;28;20040;-74
2021/05/07 08:32:22;;;;;;;14.20;3.40;;;;;;;;;;6258589;28;20453;-73
2021/05/07 08:35:24;;;;;;;13.82;3.88;;;;;;;;;;6252453;28;20099;-73
2021/05/07 08:38:25;;;;;;;9.38;3.08;;;;;;;;;;6238603;28;20132;-74
2021/05/07 08:41:27;;;;;;;11.88;3.05;;;;;;;;;;6256927;28;20136;-73
2021/05/07 08:44:28;;;;;;;12.18;3.10;;;;;;;;;;6256709;28;20053;-71
2021/05/07 08:47:32;;;;;;;11.70;2.80;;;;;;;;;;6260361;28;20132;-73
2021/05/07 08:50:33;;;;;;;10.60;2.80;;;;;;;;;;6258735;28;20546;-73
2021/05/07 08:53:35;;;;;;;11.15;2.97;;;;;;;;;;6246719;28;20103;-74
2021/05/07 08:56:37;;;;;;;11.85;3.15;;;;;;;;;;6237993;28;20053;-71
2021/05/07 08:59:39;;;;;;;12.32;3.05;;;;;;;;;;6242442;28;20054;-73
2021/05/07 09:02:41;;;;;;;12.02;3.13;;;;;;;;;;6250948;28;20176;-74
2021/05/07 09:05:42;;;;;;;8.70;2.67;;;;;;;;;;6254057;28;20061;-74
2021/05/07 09:08:43;;;;;;;10.48;3.22;;;;;;;;;;6233481;28;20161;-73
2021/05/07 09:11:45;;;;;;;11.05;3.88;;;;;;;;;;6244620;28;20124;-74
2021/05/07 09:14:47;;;;;;;9.27;3.50;;;;;;;;;;6249062;28;20140;-74
2021/05/07 09:17:48;;;;;;;9.55;3.20;;;;;;;;;;6248789;28;20183;-74
2021/05/07 09:20:50;;;;;;;10.27;3.05;;;;;;;;;;6250785;28;20071;-73
2021/05/07 09:23:53;;;;;;;15.38;3.53;;;;;;;;;;6251685;28;20492;-72
2021/05/07 09:26:55;;;;;;;;;;;;;;;;;;6252425;28;20132;-72
2021/05/07 09:29:56;;;;;;;8.13;2.75;;;;;;;;;;6264983;28;20418;-75
2021/05/07 09:32:58;;;;;;;13.20;3.78;;;;;;;;;;6250871;28;20465;-73
2021/05/07 09:35:59;;;;;;;9.38;3.00;;;;;;;;;;6240180;28;20180;-76
2021/05/07 09:39:00;;;;;;;9.35;3.72;;;;;;;;;;6238770;28;20133;-74
2021/05/07 09:42:02;;;;;;;10.48;3.38;;;;;;;;;;6254286;28;20481;-74
2021/05/07 09:45:04;;;;;;;11.98;3.10;;;;;;;;;;6265781;28;20049;-75
2021/05/07 09:48:16;;;;;;;10.77;3.30;;;;;;;;;;6254842;28;20092;-74
2021/05/07 09:51:17;;;;;;;9.40;3.25;;;;;;;;;;6263230;28;20069;-75
2021/05/07 09:54:18;;;;;;;9.73;3.30;;;;;;;;;;6258514;28;20053;-74
2021/05/07 09:57:21;;;;;;;13.55;4.00;;;;;;;;;;6237208;28;20077;-74
2021/05/07 10:00:22;;;;;;;11.05;3.70;;;;;;;;;;6239477;28;20062;-74
2021/05/07 10:03:24;;;;;;;8.90;3.30;;;;;;;;;;6229333;28;20058;-74
2021/05/07 10:06:25;;;;;;;7.60;2.85;;;;;;;;;;6234245;28;20088;-74
2021/05/07 10:09:26;;;;;;;11.02;3.13;;;;;;;;;;6246553;28;20053;-74
2021/05/07 10:12:29;;;;;;;8.98;3.88;;;;;;;;;;6239825;28;20060;-75
2021/05/07 10:15:31;;;;;;;9.05;3.70;;;;;;;;;;6256496;28;20060;-75
2021/05/07 10:18:34;;;;;;;10.70;3.78;;;;;;;;;;6261783;28;20455;-75
2021/05/07 10:21:37;;;;;;;12.70;3.83;;;;;;;;;;6262016;28;20057;-76
2021/05/07 10:24:39;;;;;;;11.73;4.60;;;;;;;;;;6254370;28;20048;-75
2021/05/07 10:27:45;;;;;;;12.73;3.53;;;;;;;;;;6252454;28;20057;-75
2021/05/07 10:30:46;;;;;;;13.02;3.92;;;;;;;;;;6249006;28;20072;-76
2021/05/07 10:33:57;;;;;;;8.77;3.78;;;;;;;;;;6252553;28;20187;-75
2021/05/07 10:37:01;;;;;;;10.98;4.07;;;;;;;;;;6258358;28;20061;-76
2021/05/07 10:40:02;;;;;;;16.45;4.05;;;;;;;;;;6256285;28;20045;-76
2021/05/07 10:43:05;;;;;;;16.90;4.00;;;;;;;;;;6252964;28;20048;-74
2021/05/07 10:46:06;;;;;;;16.88;4.22;;;;;;;;;;6260954;28;20080;-74
2021/05/07 10:49:07;;;;;;;26.02;4.10;;;;;;;;;;6261092;28;20045;-74
2021/05/07 10:52:09;;;;;;;8.27;3.50;;;;;;;;;;6262025;28;20159;-83
2021/05/07 10:55:11;;;;;;;7.50;3.58;;;;;;;;;;6262728;28;20143;-74
2021/05/07 10:58:13;;;;;;;14.77;3.70;;;;;;;;;;6261753;28;20166;-74
2021/05/07 11:01:20;;;;;;;10.30;3.27;;;;;;;;;;6253533;28;20077;-75
2021/05/07 11:04:21;;;;;;;10.48;3.40;;;;;;;;;;6259382;28;20106;-74
2021/05/07 11:07:26;;;;;;;16.30;4.22;;;;;;;;;;6260874;28;20135;-74
2021/05/07 11:10:28;;;;;;;29.83;4.53;;;;;;;;;;6235104;28;20057;-74
2021/05/07 11:13:30;;;;;;;9.23;3.58;;;;;;;;;;6244301;28;20057;-75
2021/05/07 11:16:38;;;;;;;16.63;3.67;;;;;;;;;;6251364;28;20061;-75
2021/05/07 11:19:43;;;;;;;10.85;3.72;;;;;;;;;;6252191;28;20482;-75
2021/05/07 11:22:44;;;;;;;15.60;3.85;;;;;;;;;;6245056;28;20075;-76
2021/05/07 11:25:46;;;;;;;13.95;3.97;;;;;;;;;;6243620;28;20212;-75
2021/05/07 11:28:48;;;;;;;15.65;2.92;;;;;;;;;;6253928;28;20041;-74
2021/05/07 11:31:49;;;;;;;14.23;4.13;;;;;;;;;;6250453;28;20068;-74
2021/05/07 11:34:52;;;;;;;6.18;3.20;;;;;;;;;;6246086;28;20402;-76
2021/05/07 11:37:55;;;;;;;;;;;;;;;;;;6263963;28;20059;-77
2021/05/07 11:40:56;;;;;;;;;;;;;;;;;;6254980;28;19925;-77
2021/05/07 11:44:07;;;;;;;10.82;3.10;;;;;;;;;;6258421;28;19924;-74
2021/05/07 11:47:08;;;;;;;8.00;2.88;;;;;;;;;;6262558;28;20068;-75
2021/05/07 11:50:12;;;;;;;6.80;2.97;;;;;;;;;;6259898;28;20041;-75
2021/05/07 11:53:22;;;;;;;8.40;2.40;;;;;;;;;;6260485;28;20090;-76
2021/05/07 11:56:25;;;;;;;8.07;3.80;;;;;;;;;;6254077;28;20053;-76
2021/05/07 11:59:27;;;;;;;10.48;2.80;;;;;;;;;;6235231;28;20055;-76
2021/05/07 12:02:29;;;;;;;10.27;3.08;;;;;;;;;;6241906;28;20601;-75
2021/05/07 12:05:31;;;;;;;9.40;3.17;;;;;;;;;;6259402;28;20469;-76
2021/05/07 12:08:34;;;;;;;4.80;2.75;;;;;;;;;;6234133;28;20081;-76
2021/05/07 12:11:36;;;;;;;5.65;2.33;;;;;;;;;;6234153;28;20060;-75
2021/05/07 12:14:40;;;;;;;5.90;2.13;;;;;;;;;;6256468;28;20048;-76
2021/05/07 12:17:43;;;;;;;6.20;2.60;;;;;;;;;;6238558;28;20401;-75
2021/05/07 12:20:45;;;;;;;7.03;2.40;;;;;;;;;;6246150;28;20053;-75
2021/05/07 12:23:48;;;;;;;9.75;2.40;;;;;;;;;;6254665;28;20048;-76
2021/05/07 12:26:50;;;;;;;4.50;2.35;;;;;;;;;;6233847;28;20096;-75
2021/05/07 12:29:52;;;;;;;;;;;;;;;;;;6237357;28;20049;-75
2021/05/07 12:32:58;;;;;;;5.17;2.13;;;;;;;;;;6242238;28;19941;-75
2021/05/07 12:36:00;;;;;;;5.28;2.70;;;;;;;;;;6259819;28;20060;-75
2021/05/07 12:39:07;;;;;;;11.45;2.42;;;;;;;;;;6259426;28;20068;-75
2021/05/07 12:42:08;;;;;;;6.63;2.60;;;;;;;;;;6256449;28;20053;-75
2021/05/07 12:45:11;;;;;;;10.35;2.80;;;;;;;;;;6256048;28;20057;-75
2021/05/07 12:48:13;;;;;;;9.32;3.33;;;;;;;;;;6237666;28;20064;-75
2021/05/07 12:51:15;;;;;;;6.73;2.50;;;;;;;;;;6250271;28;20076;-75
2021/05/07 12:54:16;;;;;;;5.03;1.83;;;;;;;;;;6250852;28;20054;-76
2021/05/07 12:57:17;;;;;;;3.58;1.15;;;;;;;;;;6258294;28;20055;-75
2021/05/07 13:00:20;;;;;;;6.20;1.83;;;;;;;;;;6265053;28;20045;-74
2021/05/07 13:03:23;;;;;;;5.65;2.05;;;;;;;;;;6264019;28;20115;-75
2021/05/07 13:06:24;;;;;;;8.80;2.55;;;;;;;;;;6261633;28;20037;-75
2021/05/07 13:09:25;;;;;;;9.25;2.90;;;;;;;;;;6261691;28;20497;-75
2021/05/07 13:12:26;;;;;;;5.32;2.03;;;;;;;;;;6247624;28;20175;-75
2021/05/07 13:15:29;;;;;;;5.53;2.10;;;;;;;;;;6240640;28;20045;-75
2021/05/07 13:18:30;;;;;;;;;;;;;;;;;;6231525;28;20130;-75
2021/05/07 13:21:31;;;;;;;7.43;2.42;;;;;;;;;;6245028;28;20019;-75
2021/05/07 13:24:32;;;;;;;8.30;2.45;;;;;;;;;;6263286;28;20068;-75
2021/05/07 13:27:33;;;;;;;8.82;2.40;;;;;;;;;;6258751;28;20437;-75
2021/05/07 13:30:36;;;;;;;6.43;2.00;;;;;;;;;;6259005;28;20053;-75
2021/05/07 13:33:37;;;;;;;7.68;2.40;;;;;;;;;;6262727;28;20052;-75
2021/05/07 13:36:38;;;;;;;7.90;1.92;;;;;;;;;;6262805;28;20053;-75
2021/05/07 13:39:39;;;;;;;6.13;1.88;;;;;;;;;;6263726;28;20114;-75
2021/05/07 13:42:40;;;;;;;7.95;1.70;;;;;;;;;;6235298;28;20099;-76
2021/05/07 13:45:42;;;;;;;7.70;1.57;;;;;;;;;;6245092;28;20524;-75
2021/05/07 13:48:43;;;;;;;;;;;;;;;;;;6240186;28;20728;-75
2021/05/07 13:51:45;;;;;;;6.07;1.95;;;;;;;;;;6234507;28;19920;-75
2021/05/07 13:54:46;;;;;;;5.05;1.95;;;;;;;;;;6255056;28;20659;-75
2021/05/07 13:57:47;;;;;;;8.47;2.00;;;;;;;;;;6254932;28;20053;-75
2021/05/07 14:00:49;;;;;;;5.17;2.30;;;;;;;;;;6246956;28;20177;-75
2021/05/07 14:03:52;;;;;;;6.28;2.10;;;;;;;;;;6245505;28;20133;-75
2021/05/07 14:06:53;;;;;;;4.80;1.60;;;;;;;;;;6248039;28;20410;-74
2021/05/07 14:09:54;;;;;;;9.02;2.10;;;;;;;;;;6255287;28;20576;-75
2021/05/07 14:12:56;;;;;;;8.52;2.08;;;;;;;;;;6246080;28;20068;-75
2021/05/07 14:15:58;;;;;;;4.70;1.67;;;;;;;;;;6246988;28;20065;-75
2021/05/07 14:18:59;;;;;;;5.07;1.48;;;;;;;;;;6248044;28;20482;-74
2021/05/07 14:22:00;;;;;;;8.32;1.75;;;;;;;;;;6250806;28;20937;-74
2021/05/07 14:25:01;;;;;;;8.95;2.17;;;;;;;;;;6252379;28;20057;-74
2021/05/07 14:28:05;;;;;;;3.08;1.42;;;;;;;;;;6259165;28;20075;-75
2021/05/07 14:31:07;;;;;;;6.75;1.80;;;;;;;;;;6262168;28;20053;-74
2021/05/07 14:34:08;;;;;;;3.95;1.55;;;;;;;;;;6262147;28;20041;-74
2021/05/07 14:37:09;;;;;;;3.22;1.50;;;;;;;;;;6233443;28;20512;-74
2021/05/07 14:40:12;;;;;;;6.50;1.63;;;;;;;;;;6254615;28;20097;-74
2021/05/07 14:43:13;;;;;;;38.00;2.90;;;;;;;;;;6257909;28;20045;-74
2021/05/07 14:46:15;;;;;;;8.10;1.80;;;;;;;;;;6252351;28;20049;-75
2021/05/07 14:49:16;;;;;;;11.13;1.40;;;;;;;;;;6235851;28;20073;-74
2021/05/07 14:52:17;;;;;;;40.40;3.72;;;;;;;;;;6239713;28;20065;-74
2021/05/07 14:55:18;;;;;;;26.17;2.67;;;;;;;;;;6228599;28;20160;-74
2021/05/07 14:58:19;;;;;;;6.70;1.60;;;;;;;;;;6233156;28;20100;-74
2021/05/07 15:01:21;;;;;;;6.70;1.42;;;;;;;;;;6235675;28;20057;-74
2021/05/07 15:04:23;;;;;;;12.75;2.25;;;;;;;;;;6243897;28;20057;-75
2021/05/07 15:07:24;;;;;;;8.88;1.50;;;;;;;;;;6247067;28;20049;-74
2021/05/07 15:10:25;;;;;;;15.02;2.35;;;;;;;;;;6231501;28;20056;-74
2021/05/07 15:13:26;;;;;;;3.47;0.85;;;;;;;;;;6249801;28;20045;-75
2021/05/07 15:16:28;;;;;;;4.63;1.52;;;;;;;;;;6250015;28;20369;-74
2021/05/07 15:19:29;;;;;;;4.78;1.70;;;;;;;;;;6248229;28;20136;-73
2021/05/07 15:22:30;;;;;;;7.82;1.30;;;;;;;;;;6249948;28;20099;-74
2021/05/07 15:25:32;;;;;;;6.70;1.33;;;;;;;;;;6230898;28;20093;-74
2021/05/07 15:28:33;;;;;;;4.32;1.35;;;;;;;;;;6229838;28;20057;-74
2021/05/07 15:31:35;;;;;;;7.03;1.50;;;;;;;;;;6250566;28;20087;-74
2021/05/07 15:34:36;;;;;;;9.43;1.80;;;;;;;;;;6256506;28;20663;-74
2021/05/07 15:37:37;;;;;;;7.78;1.50;;;;;;;;;;6255111;28;20111;-75
2021/05/07 15:40:38;;;;;;;6.10;1.20;;;;;;;;;;6230838;28;20057;-74
2021/05/07 15:43:40;;;;;;;4.88;1.13;;;;;;;;;;6250445;28;20076;-74
2021/05/07 15:46:42;;;;;;;10.93;1.50;;;;;;;;;;6235541;28;20061;-73
2021/05/07 15:49:43;;;;;;;2.85;1.10;;;;;;;;;;6230717;28;20053;-74
2021/05/07 15:52:45;;;;;;;5.15;1.27;;;;;;;;;;6258705;28;20504;-75
2021/05/07 15:55:46;;;;;;;1.20;0.80;;;;;;;;;;6256932;28;20432;-73
2021/05/07 15:58:47;;;;;;;10.23;1.55;;;;;;;;;;6257953;28;20065;-74
2021/05/07 16:01:49;;;;;;;6.22;1.50;;;;;;;;;;6258715;28;20098;-74
2021/05/07 16:04:50;;;;;;;13.40;2.65;;;;;;;;;;6248809;28;20049;-74
2021/05/07 16:07:52;;;;;;;31.00;2.40;;;;;;;;;;6230820;28;20055;-73
2021/05/07 16:10:54;;;;;;;14.10;1.23;;;;;;;;;;6242016;28;20097;-74
2021/05/07 16:13:56;;;;;;;5.95;1.00;;;;;;;;;;6238750;28;20447;-74
2021/05/07 16:16:58;;;;;;;5.68;1.30;;;;;;;;;;6243432;28;20052;-74
2021/05/07 16:19:59;;;;;;;11.05;1.77;;;;;;;;;;6256291;28;20049;-76
2021/05/07 16:23:01;;;;;;;8.65;1.33;;;;;;;;;;6248050;28;20136;-73
2021/05/07 16:26:05;;;;;;;2.83;0.95;;;;;;;;;;6233781;28;20054;-74
2021/05/07 16:29:06;;;;;;;3.05;0.57;;;;;;;;;;6258687;28;20037;-73
2021/05/07 16:32:08;;;;;;;5.90;1.00;;;;;;;;;;6259095;28;20049;-73
2021/05/07 16:35:11;;;;;;;7.53;1.40;;;;;;;;;;6257474;28;20570;-74
2021/05/07 16:38:14;;;;;;;4.00;0.75;;;;;;;;;;6238247;28;20053;-74
2021/05/07 16:41:15;;;;;;;;;;;;;;;;;;6261884;28;20057;-74
2021/05/07 16:44:17;;;;;;;6.32;1.90;;;;;;;;;;6257461;28;20323;-74
2021/05/07 16:47:19;;;;;;;2.63;0.65;;;;;;;;;;6234768;28;20081;-74
2021/05/07 16:50:20;;;;;;;3.83;0.90;;;;;;;;;;6257979;28;20081;-77
2021/05/07 16:53:21;;;;;;;6.40;1.10;;;;;;;;;;6260281;28;20057;-75
2021/05/07 16:56:23;;;;;;;14.70;1.42;;;;;;;;;;6260610;28;20476;-73
2021/05/07 16:59:24;;;;;;;12.38;1.00;;;;;;;;;;6265246;28;20047;-73
2021/05/07 17:02:26;;;;;;;14.45;1.75;;;;;;;;;;6264740;28;20086;-73
2021/05/07 17:05:28;;;;;;;7.15;0.50;;;;;;;;;;6264941;28;20059;-74
2021/05/07 17:08:29;;;;;;;6.68;0.90;;;;;;;;;;6262863;28;20081;-75
2021/05/07 17:11:31;;;;;;;17.35;1.30;;;;;;;;;;6265748;28;20053;-74
2021/05/07 17:14:32;;;;;;;4.95;0.77;;;;;;;;;;6253295;28;20056;-74
2021/05/07 17:17:34;;;;;;;3.47;0.70;;;;;;;;;;6247753;28;20092;-73
2021/05/07 17:20:36;;;;;;;4.88;0.70;;;;;;;;;;6239830;28;20050;-73
2021/05/07 17:23:37;;;;;;;3.40;0.90;;;;;;;;;;6231408;28;20057;-74
2021/05/07 17:26:38;;;;;;;5.70;0.70;;;;;;;;;;6239988;28;20057;-74
2021/05/07 17:29:39;;;;;;;2.55;0.90;;;;;;;;;;6234062;28;20377;-73
2021/05/07 17:32:44;;;;;;;2.15;0.50;;;;;;;;;;6242920;28;20453;-73
2021/05/07 17:35:46;;;;;;;6.68;0.60;;;;;;;;;;6252532;28;20049;-73
2021/05/07 17:38:48;;;;;;;3.33;0.50;;;;;;;;;;6252858;28;20041;-73
2021/05/07 17:41:49;;;;;;;3.20;0.60;;;;;;;;;;6258172;28;20049;-73
2021/05/07 17:44:50;;;;;;;7.22;1.67;;;;;;;;;;6262288;28;20158;-73
2021/05/07 17:47:52;;;;;;;4.68;1.20;;;;;;;;;;6263067;28;20071;-74
2021/05/07 17:50:53;;;;;;;8.25;0.90;;;;;;;;;;6256183;28;20141;-73
2021/05/07 17:53:54;;;;;;;3.80;0.70;;;;;;;;;;6258083;28;20510;-74
2021/05/07 17:56:55;;;;;;;1.88;0.60;;;;;;;;;;6261637;28;20056;-73
2021/05/07 17:59:57;;;;;;;2.72;0.40;;;;;;;;;;6243363;28;20046;-73
2021/05/07 18:02:59;;;;;;;3.22;0.38;;;;;;;;;;6259608;28;20057;-74